Time;durP1;ratioP1;P1;durP2;ratioP2;P2;SDS_P1;SDS_P2;PMS_P1;PMS_P2;Temp;Humidity;BMP_temperature;BMP_pressure;BME280_temperature;BME280_humidity;BME280_pressure;Samples;Min_cycle;Max_cycle;Signal;HPM_P1;HPM_P2
2022/10/18 00:01:58;;;;;;;50.60;32.47;;;8.30;99.90;;;;;;4972485;28;20134;-70
2022/10/18 00:04:26;;;;;;;51.13;33.05;;;8.30;99.90;;;;;;4971830;28;20042;-70
2022/10/18 00:06:53;;;;;;;51.47;32.88;;;8.30;99.90;;;;;;4975463;28;20050;-69
2022/10/18 00:09:20;;;;;;;50.10;34.33;;;8.40;99.90;;;;;;4973971;28;20058;-70
2022/10/18 00:11:50;;;;;;;52.72;33.75;;;8.30;99.90;;;;;;4999762;28;20502;-70
2022/10/18 00:14:17;;;;;;;47.67;32.53;;;8.30;99.90;;;;;;4971912;28;20068;-70
2022/10/18 00:16:45;;;;;;;51.30;32.85;;;8.30;99.90;;;;;;4972623;28;20122;-68
2022/10/18 00:19:12;;;;;;;48.35;31.52;;;8.20;99.90;;;;;;4972424;28;20051;-69
2022/10/18 00:21:39;;;;;;;46.20;31.40;;;8.20;99.90;;;;;;4987333;28;20137;-69
2022/10/18 00:24:07;;;;;;;46.40;29.58;;;8.10;99.90;;;;;;4972182;28;20047;-71
2022/10/18 00:26:34;;;;;;;48.08;31.88;;;8.20;99.90;;;;;;4963335;28;20045;-70
2022/10/18 00:29:05;;;;;;;47.75;31.10;;;8.10;99.90;;;;;;4971571;28;20047;-69
2022/10/18 00:31:34;;;;;;;45.85;32.28;;;8.00;99.90;;;;;;4954973;28;20051;-69
2022/10/18 00:34:04;;;;;;;50.85;33.63;;;8.00;99.90;;;;;;4972171;28;20055;-69
2022/10/18 00:36:34;;;;;;;49.38;35.55;;;8.00;99.90;;;;;;4954841;28;20051;-70
2022/10/18 00:39:02;;;;;;;46.08;32.70;;;8.00;99.90;;;;;;4972332;28;20117;-71
2022/10/18 00:41:31;;;;;;;41.65;27.95;;;8.00;99.90;;;;;;4972771;28;20058;-70
2022/10/18 00:43:59;;;;;;;42.40;27.70;;;8.00;99.90;;;;;;4958292;28;20494;-69
2022/10/18 00:46:31;;;;;;;34.90;23.42;;;7.90;99.90;;;;;;4952975;29;20039;-70
2022/10/18 00:49:04;;;;;;;39.63;26.27;;;7.90;99.90;;;;;;4952839;28;20051;-69
2022/10/18 00:51:34;;;;;;;41.30;27.05;;;7.90;99.90;;;;;;4951567;28;20395;-69
2022/10/18 00:54:01;;;;;;;43.40;27.35;;;7.90;99.90;;;;;;4951305;28;20043;-69
2022/10/18 00:56:29;;;;;;;40.83;29.05;;;7.80;99.90;;;;;;4987698;28;20113;-68
2022/10/18 00:58:58;;;;;;;45.78;31.90;;;7.80;99.90;;;;;;4970867;28;20049;-69
2022/10/18 01:01:25;;;;;;;54.42;32.97;;;7.80;99.90;;;;;;4972128;28;20053;-69
2022/10/18 01:03:55;;;;;;;52.10;33.78;;;7.70;99.90;;;;;;4967207;28;20051;-69
2022/10/18 01:06:22;;;;;;;48.97;33.47;;;7.70;99.90;;;;;;4955472;28;20113;-70
2022/10/18 01:09:12;;;;;;;53.40;33.97;;;7.70;99.90;;;;;;4971772;28;20504;-69
2022/10/18 01:11:55;;;;;;;52.55;33.40;;;7.60;99.90;;;;;;4970556;28;20047;-71
2022/10/18 01:14:34;;;;;;;51.15;32.58;;;7.60;99.90;;;;;;4972152;28;20413;-70
2022/10/18 01:17:10;;;;;;;48.75;30.42;;;7.70;99.90;;;;;;4971661;28;20099;-69
2022/10/18 01:20:17;;;;;;;47.15;30.42;;;7.60;99.90;;;;;;4971651;28;20490;-70
2022/10/18 01:22:49;;;;;;;44.00;28.45;;;7.70;99.90;;;;;;4951328;28;20470;-69
2022/10/18 01:25:34;;;;;;;40.15;26.98;;;7.50;99.90;;;;;;4959361;28;20039;-70
2022/10/18 01:28:12;;;;;;;40.95;27.77;;;7.40;99.90;;;;;;4967176;28;20050;-69
2022/10/18 01:30:49;;;;;;;39.67;25.58;;;7.40;99.90;;;;;;4994847;22;20056;-70
2022/10/18 01:33:25;;;;;;;40.75;26.45;;;7.30;99.90;;;;;;5071053;28;20515;-69
2022/10/18 01:35:58;;;;;;;38.20;25.00;;;7.30;99.90;;;;;;5010192;28;20488;-68
2022/10/18 01:38:29;;;;;;;43.15;26.63;;;7.30;99.90;;;;;;5010804;28;20503;-69
2022/10/18 01:40:58;;;;;;;39.60;24.60;;;7.30;99.90;;;;;;5010438;28;20046;-68
2022/10/18 01:43:27;;;;;;;37.83;25.00;;;7.30;99.90;;;;;;5078160;28;20073;-70
2022/10/18 01:45:57;;;;;;;39.47;26.33;;;7.30;99.90;;;;;;5078615;28;20129;-69
2022/10/18 01:48:25;;;;;;;41.90;26.30;;;7.20;99.90;;;;;;5011969;28;20042;-68
2022/10/18 01:50:53;;;;;;;41.22;25.80;;;7.30;99.90;;;;;;5011702;28;20087;-69
2022/10/18 01:53:29;;;;;;;40.15;25.38;;;7.20;99.90;;;;;;5010479;28;20046;-67
2022/10/18 01:56:21;;;;;;;37.33;25.60;;;7.20;99.90;;;;;;5010811;28;20069;-68
2022/10/18 01:59:05;;;;;;;38.17;25.75;;;7.10;99.90;;;;;;5066751;28;20054;-68
2022/10/18 02:01:43;;;;;;;44.03;26.23;;;7.10;99.90;;;;;;5010137;28;20057;-69
2022/10/18 02:04:22;;;;;;;43.17;28.35;;;7.20;99.90;;;;;;5011487;28;20050;-69
2022/10/18 02:06:55;;;;;;;43.50;28.75;;;7.10;99.90;;;;;;5081518;28;20113;-69
2022/10/18 02:09:31;;;;;;;42.55;27.67;;;7.10;99.90;;;;;;5011024;28;20133;-69
2022/10/18 02:11:59;;;;;;;;;;;7.10;99.90;;;;;;5078979;28;20554;-68
2022/10/18 02:14:27;;;;;;;45.53;31.40;;;7.10;99.90;;;;;;5012789;28;19928;-68
2022/10/18 02:16:59;;;;;;;44.60;30.25;;;7.00;99.90;;;;;;5080616;28;20153;-68
2022/10/18 02:19:31;;;;;;;38.15;26.95;;;7.00;99.90;;;;;;5012207;28;20049;-69
2022/10/18 03:09:02;;;;;;;44.90;32.13;;;6.50;99.90;;;;;;4989865;28;20072;-70
2022/10/18 03:11:29;;;;;;;43.15;26.52;;;6.40;99.90;;;;;;5064099;28;20053;-68
2022/10/18 03:13:56;;;;;;;43.90;27.35;;;6.40;99.90;;;;;;5001429;28;20042;-69
2022/10/18 03:16:24;;;;;;;42.05;26.20;;;6.40;99.90;;;;;;5080326;28;20042;-70
2022/10/18 03:18:51;;;;;;;47.50;25.90;;;6.40;99.90;;;;;;5015557;28;20105;-69
2022/10/18 03:21:18;;;;;;;42.05;25.85;;;6.40;99.90;;;;;;5006967;28;20054;-70
2022/10/18 03:23:46;;;;;;;41.42;24.92;;;6.40;99.90;;;;;;5013418;28;20091;-69
2022/10/18 03:26:15;;;;;;;43.38;25.90;;;6.30;99.90;;;;;;5013654;28;20056;-69
2022/10/18 03:28:42;;;;;;;41.30;24.35;;;6.30;99.90;;;;;;5014207;28;20042;-69
2022/10/18 03:31:09;;;;;;;39.25;23.98;;;6.30;99.90;;;;;;5014482;28;20042;-69
2022/10/18 03:33:37;;;;;;;37.67;23.90;;;6.30;99.90;;;;;;5015600;28;20042;-69
2022/10/18 03:36:04;;;;;;;37.22;24.67;;;6.40;99.90;;;;;;5041457;28;20117;-69
2022/10/18 03:38:32;;;;;;;39.15;24.35;;;6.30;99.90;;;;;;5004527;28;20049;-68
2022/10/18 03:40:59;;;;;;;36.58;23.52;;;6.30;99.90;;;;;;5012629;28;20077;-68
2022/10/18 03:43:28;;;;;;;32.08;20.42;;;6.30;99.90;;;;;;5055001;28;20141;-69
2022/10/18 03:45:55;;;;;;;38.00;22.48;;;6.30;99.90;;;;;;4999982;28;20034;-69
2022/10/18 03:48:23;;;;;;;32.03;20.58;;;6.30;99.90;;;;;;5038716;28;20050;-69
2022/10/18 03:50:50;;;;;;;31.92;19.85;;;6.30;99.90;;;;;;5011765;28;20050;-69
2022/10/18 03:53:18;;;;;;;34.88;20.60;;;6.30;99.90;;;;;;5081709;28;20454;-68
2022/10/18 03:55:50;;;;;;;32.08;21.65;;;6.20;99.90;;;;;;5073755;28;20041;-69
2022/10/18 03:58:17;;;;;;;35.40;22.67;;;6.10;99.90;;;;;;5016675;28;20489;-69
2022/10/18 04:00:48;;;;;;;37.97;23.35;;;6.10;99.90;;;;;;5016579;28;20042;-70
2022/10/18 04:03:16;;;;;;;37.47;23.83;;;6.20;99.90;;;;;;5078467;28;20054;-69
2022/10/18 04:05:44;;;;;;;41.10;25.95;;;6.10;99.90;;;;;;4992758;28;20091;-69
2022/10/18 04:08:11;;;;;;;46.70;28.75;;;6.00;99.90;;;;;;5011709;28;20085;-68
2022/10/18 04:10:39;;;;;;;49.38;30.38;;;6.00;99.90;;;;;;5012846;28;20487;-68
2022/10/18 04:13:07;;;;;;;48.47;29.08;;;6.00;99.90;;;;;;5014400;28;20075;-70
2022/10/18 04:15:35;;;;;;;41.85;26.02;;;5.90;99.90;;;;;;5041769;28;20117;-69
2022/10/18 04:18:03;;;;;;;41.53;25.42;;;5.90;99.90;;;;;;5011986;28;20041;-70
2022/10/18 04:20:31;;;;;;;42.47;25.58;;;6.00;99.90;;;;;;5011412;28;20052;-69
2022/10/18 04:22:58;;;;;;;48.88;26.02;;;5.90;99.90;;;;;;5011824;28;20450;-69
2022/10/18 04:25:27;;;;;;;38.25;23.77;;;5.90;99.90;;;;;;5012209;28;20076;-69
2022/10/18 04:27:54;;;;;;;37.90;22.27;;;5.90;99.90;;;;;;5051402;28;20370;-69
2022/10/18 04:30:22;;;;;;;37.97;23.38;;;5.90;99.90;;;;;;5022992;28;20042;-70
2022/10/18 04:32:49;;;;;;;36.47;23.73;;;6.00;99.90;;;;;;5019914;28;20050;-69
2022/10/18 04:35:18;;;;;;;40.85;23.52;;;5.90;99.90;;;;;;5021432;28;20378;-69
2022/10/18 04:37:46;;;;;;;36.85;22.98;;;5.90;99.90;;;;;;5019176;28;20424;-69
2022/10/18 04:40:13;;;;;;;38.45;24.92;;;5.90;99.90;;;;;;5072159;28;20049;-69
2022/10/18 04:42:40;;;;;;;45.40;25.95;;;5.80;99.90;;;;;;5047627;28;20140;-69
2022/10/18 04:45:09;;;;;;;35.08;22.65;;;5.80;99.90;;;;;;5056320;28;20050;-70
2022/10/18 04:47:36;;;;;;;39.83;22.88;;;5.80;99.90;;;;;;5013350;28;20388;-70
2022/10/18 04:50:04;;;;;;;37.17;23.30;;;5.80;99.90;;;;;;5079186;28;20099;-69
2022/10/18 04:52:33;;;;;;;37.75;25.02;;;5.70;99.90;;;;;;5003805;28;20121;-69
2022/10/18 04:55:00;;;;;;;47.92;28.95;;;5.80;99.90;;;;;;5079562;28;20049;-71
2022/10/18 04:57:28;;;;;;;42.53;29.95;;;5.70;99.90;;;;;;5012627;28;20049;-69
2022/10/18 04:59:55;;;;;;;44.38;27.98;;;5.70;99.90;;;;;;5009985;28;20651;-69
2022/10/18 05:02:22;;;;;;;40.58;25.50;;;5.80;99.90;;;;;;5017486;28;20052;-68
2022/10/18 05:04:51;;;;;;;37.17;25.67;;;5.70;99.90;;;;;;5015168;28;20430;-71
2022/10/18 05:07:18;;;;;;;45.58;27.17;;;5.70;99.90;;;;;;5065089;28;20042;-70
2022/10/18 05:09:47;;;;;;;48.40;29.73;;;5.80;99.90;;;;;;5010637;28;20062;-68
2022/10/18 05:12:14;;;;;;;54.70;31.90;;;5.80;99.90;;;;;;5010405;28;20068;-71
2022/10/18 05:14:42;;;;;;;53.42;29.67;;;5.80;99.90;;;;;;5010315;28;20049;-69
2022/10/18 05:17:09;;;;;;;49.65;28.50;;;5.90;99.90;;;;;;5002970;28;20045;-69
2022/10/18 05:19:37;;;;;;;41.63;26.17;;;5.90;99.90;;;;;;5010723;28;20053;-69
2022/10/18 05:22:04;;;;;;;46.88;25.88;;;5.90;99.90;;;;;;5006399;28;20053;-69
2022/10/18 05:24:32;;;;;;;44.28;26.77;;;5.90;99.90;;;;;;5050584;28;20048;-69
2022/10/18 05:27:01;;;;;;;38.15;25.20;;;5.90;99.90;;;;;;5045153;28;20092;-69
2022/10/18 05:29:28;;;;;;;39.95;24.75;;;6.00;99.90;;;;;;5011063;28;20046;-69
2022/10/18 05:31:56;;;;;;;47.28;26.20;;;6.00;99.90;;;;;;5011151;28;20038;-69
2022/10/18 05:34:26;;;;;;;42.72;25.33;;;6.00;99.90;;;;;;5010742;28;20167;-69
2022/10/18 05:36:53;;;;;;;40.33;25.25;;;6.00;99.90;;;;;;5010634;28;20064;-69
2022/10/18 05:39:21;;;;;;;46.55;27.73;;;6.10;99.90;;;;;;5078069;28;20050;-70
2022/10/18 05:41:48;;;;;;;47.05;26.88;;;6.10;99.90;;;;;;5078287;28;20157;-68
2022/10/18 05:44:17;;;;;;;42.80;27.05;;;6.20;99.90;;;;;;5078158;28;20054;-69
2022/10/18 05:46:44;;;;;;;44.97;25.73;;;6.30;99.90;;;;;;5010375;28;20046;-69
2022/10/18 05:49:12;;;;;;;40.22;26.48;;;6.30;99.90;;;;;;5010620;28;20045;-69
2022/10/18 05:51:40;;;;;;;47.75;26.48;;;6.30;99.90;;;;;;5010276;28;20095;-70
2022/10/18 05:54:07;;;;;;;42.17;25.90;;;6.30;99.90;;;;;;5010068;28;20091;-68
2022/10/18 05:56:34;;;;;;;42.00;24.42;;;6.30;99.90;;;;;;5012646;28;20038;-69
2022/10/18 05:59:03;;;;;;;40.63;26.13;;;6.30;99.90;;;;;;5013638;28;20374;-70
2022/10/18 06:01:32;;;;;;;44.38;24.27;;;6.40;99.90;;;;;;5013556;28;20053;-69
2022/10/18 06:04:00;;;;;;;39.50;24.80;;;6.40;99.90;;;;;;5013649;28;20066;-70
2022/10/18 06:06:27;;;;;;;206.35;44.58;;;6.40;99.90;;;;;;5013729;28;20087;-70
2022/10/18 06:08:55;;;;;;;43.58;27.00;;;6.60;99.90;;;;;;5013730;28;20061;-69
2022/10/18 06:11:22;;;;;;;51.67;31.05;;;6.70;99.90;;;;;;5013785;28;20045;-69
2022/10/18 06:13:51;;;;;;;46.97;29.58;;;6.70;99.90;;;;;;5013910;28;20050;-69
2022/10/18 06:16:20;;;;;;;51.22;28.98;;;6.80;99.90;;;;;;5013767;28;20046;-69
2022/10/18 06:18:50;;;;;;;51.58;27.77;;;6.90;99.90;;;;;;5013426;28;20138;-71
2022/10/18 06:21:18;;;;;;;46.90;28.40;;;7.00;99.90;;;;;;5013241;28;20664;-69
2022/10/18 06:23:49;;;;;;;53.35;27.95;;;7.20;99.90;;;;;;5009176;28;20034;-70
2022/10/18 06:26:16;;;;;;;41.35;26.95;;;7.50;99.90;;;;;;5005957;28;20042;-69
2022/10/18 06:28:44;;;;;;;46.97;27.92;;;7.70;99.90;;;;;;5009281;28;20061;-69
2022/10/18 06:31:12;;;;;;;58.38;34.08;;;7.90;99.90;;;;;;5057012;28;20497;-69
2022/10/18 06:33:40;;;;;;;56.13;32.38;;;8.20;99.90;;;;;;5006741;28;20053;-70
2022/10/18 06:36:15;;;;;;;57.35;34.15;;;8.50;99.90;;;;;;5013307;28;20046;-69
2022/10/18 06:38:43;;;;;;;58.47;35.72;;;8.60;99.90;;;;;;5014676;28;20053;-69
2022/10/18 06:41:11;;;;;;;58.25;33.17;;;8.70;99.90;;;;;;5014109;28;20109;-70
2022/10/18 06:43:38;;;;;;;47.40;32.75;;;8.90;99.90;;;;;;5014446;28;20045;-69
2022/10/18 06:46:07;;;;;;;53.03;33.88;;;9.10;99.90;;;;;;5015861;28;20034;-69
2022/10/18 06:48:35;;;;;;;46.15;29.67;;;9.40;99.90;;;;;;5014923;28;20049;-69
2022/10/18 06:51:04;;;;;;;48.75;28.95;;;9.70;99.90;;;;;;5017221;28;20053;-70
2022/10/18 06:53:35;;;;;;;44.45;29.02;;;10.00;99.90;;;;;;5084114;28;20115;-69
2022/10/18 06:56:05;;;;;;;46.13;28.52;;;10.20;99.90;;;;;;5014686;28;20443;-69
2022/10/18 06:58:33;;;;;;;52.13;27.23;;;10.30;99.90;;;;;;5006355;28;20485;-69
2022/10/18 07:01:06;;;;;;;41.80;26.60;;;10.40;99.90;;;;;;5013607;28;20042;-70
2022/10/18 07:03:34;;;;;;;42.47;26.88;;;10.50;99.90;;;;;;5015052;28;20045;-68
2022/10/18 07:06:02;;;;;;;42.75;25.52;;;10.60;99.90;;;;;;5015483;28;20046;-70
2022/10/18 07:08:29;;;;;;;40.20;25.13;;;10.60;99.90;;;;;;5011912;28;20095;-69
2022/10/18 07:10:58;;;;;;;38.70;24.52;;;10.70;99.90;;;;;;5012711;28;20052;-69
2022/10/18 07:13:29;;;;;;;66.10;28.48;;;10.90;99.90;;;;;;5012660;28;20054;-69
2022/10/18 07:16:05;;;;;;;36.53;24.77;;;11.10;99.90;;;;;;5012501;28;20042;-70
2022/10/18 07:18:34;;;;;;;43.17;24.02;;;11.30;99.90;;;;;;5012923;28;20439;-69
2022/10/18 07:21:02;;;;;;;43.45;22.75;;;11.40;99.90;;;;;;5012361;28;20113;-69
2022/10/18 07:23:31;;;;;;;36.03;20.75;;;11.40;99.90;;;;;;5012137;28;20037;-69
2022/10/18 07:26:00;;;;;;;35.83;23.02;;;11.40;99.90;;;;;;5012401;28;20381;-70
2022/10/18 07:28:28;;;;;;;29.73;20.77;;;11.30;99.90;;;;;;5079903;28;20038;-69
2022/10/18 07:30:55;;;;;;;38.00;22.33;;;11.50;99.90;;;;;;5012568;28;20038;-69
2022/10/18 07:33:24;;;;;;;38.67;23.17;;;11.70;99.90;;;;;;5012236;28;20405;-70
2022/10/18 07:35:52;;;;;;;33.25;20.75;;;11.80;99.90;;;;;;5012300;28;20073;-69
2022/10/18 07:38:19;;;;;;;32.08;20.48;;;12.20;99.90;;;;;;5012246;28;20535;-69
2022/10/18 07:40:46;;;;;;;33.05;20.67;;;12.30;99.90;;;;;;5012907;28;20049;-69
2022/10/18 07:43:15;;;;;;;30.98;20.85;;;12.50;99.90;;;;;;5012694;28;20095;-71
2022/10/18 07:45:52;;;;;;;28.40;19.33;;;12.60;99.90;;;;;;5012588;28;20056;-70
2022/10/18 07:48:19;;;;;;;33.67;20.65;;;12.70;99.90;;;;;;5012513;28;20046;-69
2022/10/18 07:50:47;;;;;;;27.02;18.45;;;12.90;99.90;;;;;;5011773;28;20178;-70
2022/10/18 07:53:14;;;;;;;30.25;18.27;;;13.30;99.90;;;;;;5012588;28;20046;-69
2022/10/18 07:55:42;;;;;;;26.80;18.90;;;13.50;99.90;;;;;;5012265;28;20046;-69
2022/10/18 07:58:09;;;;;;;28.42;19.73;;;13.80;99.90;;;;;;5045237;28;20046;-70
2022/10/18 08:00:39;;;;;;;30.05;19.05;;;13.90;99.90;;;;;;5011975;28;20532;-69
2022/10/18 08:03:06;;;;;;;31.23;20.40;;;14.00;99.90;;;;;;5011586;28;20046;-69
2022/10/18 08:05:33;;;;;;;33.35;22.38;;;14.10;99.90;;;;;;5011697;28;20072;-70
2022/10/18 08:08:01;;;;;;;46.15;26.90;;;14.30;99.90;;;;;;5079690;28;20408;-71
2022/10/18 08:10:28;;;;;;;49.58;30.83;;;14.40;99.90;;;;;;5011932;28;20042;-69
2022/10/18 08:12:55;;;;;;;40.65;29.95;;;14.50;99.90;;;;;;5012045;28;20492;-69
2022/10/18 08:15:24;;;;;;;37.55;25.58;;;14.60;99.90;;;;;;5011535;28;20099;-70
2022/10/18 08:17:53;;;;;;;36.78;22.98;;;14.60;99.90;;;;;;5011668;28;20485;-70
2022/10/18 08:20:20;;;;;;;31.55;22.17;;;14.60;99.90;;;;;;5010559;28;20438;-69
2022/10/18 08:22:50;;;;;;;39.88;24.25;;;14.70;99.90;;;;;;5011398;28;20552;-69
2022/10/18 08:25:18;;;;;;;30.67;20.23;;;14.90;99.90;;;;;;5013149;28;20050;-69
2022/10/18 08:27:45;;;;;;;36.67;19.17;;;14.90;99.90;;;;;;5079549;28;20053;-70
2022/10/18 08:30:13;;;;;;;25.38;17.25;;;15.10;99.90;;;;;;5011941;28;20464;-70
2022/10/18 08:32:40;;;;;;;26.60;18.27;;;15.20;99.90;;;;;;5011437;28;20104;-69
2022/10/18 08:35:09;;;;;;;29.63;18.58;;;15.20;99.90;;;;;;5011955;28;20068;-69
2022/10/18 08:37:37;;;;;;;31.23;21.38;;;15.30;99.90;;;;;;5014003;28;20038;-69
2022/10/18 08:40:05;;;;;;;29.17;18.02;;;15.30;99.90;;;;;;5011605;28;20493;-69
2022/10/18 08:42:56;;;;;;;30.42;19.05;;;15.40;99.90;;;;;;5011666;28;20046;-71
2022/10/18 08:45:25;;;;;;;24.83;17.83;;;15.40;99.90;;;;;;5079157;28;20046;-68
2022/10/18 08:47:56;;;;;;;31.15;18.20;;;15.50;99.90;;;;;;5078842;28;20046;-70
2022/10/18 08:50:33;;;;;;;31.33;17.92;;;15.60;99.90;;;;;;5011114;28;20125;-69
2022/10/18 08:53:06;;;;;;;28.02;17.90;;;15.80;99.90;;;;;;5010886;28;20041;-70
2022/10/18 08:55:40;;;;;;;33.45;18.00;;;15.90;99.90;;;;;;5010737;28;20038;-69
2022/10/18 08:58:17;;;;;;;34.38;18.70;;;16.00;99.90;;;;;;5011357;28;20481;-69
2022/10/18 09:00:53;;;;;;;26.40;17.65;;;16.10;99.90;;;;;;5011012;28;20052;-69
2022/10/18 09:03:32;;;;;;;38.95;21.38;;;16.20;99.90;;;;;;4991330;28;20046;-70
2022/10/18 09:06:11;;;;;;;24.77;16.23;;;16.20;99.90;;;;;;4991909;28;20084;-70
2022/10/18 09:08:52;;;;;;;29.67;18.45;;;16.20;99.90;;;;;;4991248;28;20133;-69
2022/10/18 09:11:29;;;;;;;32.80;19.45;;;16.30;99.90;;;;;;4991432;28;20046;-69
2022/10/18 09:14:27;;;;;;;24.02;17.27;;;16.40;99.90;;;;;;4991510;28;20054;-69
2022/10/18 09:17:04;;;;;;;30.70;18.45;;;16.40;99.90;;;;;;4991993;28;20043;-70
2022/10/18 09:19:53;;;;;;;28.30;20.85;;;16.50;99.90;;;;;;4992402;28;20057;-69
2022/10/18 09:22:30;;;;;;;34.85;20.42;;;16.50;99.90;;;;;;4991991;28;20057;-70
2022/10/18 09:25:05;;;;;;;28.52;19.27;;;16.70;99.90;;;;;;4994955;28;20496;-70
2022/10/18 09:27:35;;;;;;;;;;;16.80;99.90;;;;;;5011920;28;20095;-70
2022/10/18 09:30:13;;;;;;;27.42;18.73;;;17.00;99.90;;;;;;5016254;28;20341;-69
2022/10/18 09:32:48;;;;;;;34.28;22.38;;;17.00;99.90;;;;;;5014273;28;20446;-72
2022/10/18 09:35:20;;;;;;;31.83;22.80;;;17.10;99.90;;;;;;5080251;28;20054;-73
2022/10/18 09:37:50;;;;;;;34.85;25.42;;;17.20;99.90;;;;;;5012725;28;20542;-72
2022/10/18 09:40:23;;;;;;;33.08;22.58;;;17.30;99.90;;;;;;5011974;28;20050;-72
2022/10/18 09:42:55;;;;;;;29.65;20.65;;;17.50;99.90;;;;;;5010671;28;20058;-73
2022/10/18 09:45:27;;;;;;;31.27;21.65;;;17.60;99.90;;;;;;5011152;28;20049;-71
2022/10/18 09:48:07;;;;;;;34.95;21.83;;;17.60;99.90;;;;;;5011469;28;20117;-72
2022/10/18 09:50:39;;;;;;;29.35;21.55;;;17.60;99.90;;;;;;5015197;28;20385;-72
2022/10/18 09:53:18;;;;;;;32.80;22.52;;;17.70;99.90;;;;;;5014441;28;20061;-72
2022/10/18 09:55:56;;;;;;;35.08;21.75;;;17.80;99.90;;;;;;5070701;28;20045;-71
2022/10/18 09:58:26;;;;;;;33.50;23.23;;;17.90;99.90;;;;;;5012731;28;20041;-72
2022/10/18 10:00:55;;;;;;;32.65;22.52;;;18.10;99.90;;;;;;5014017;28;20500;-72
2022/10/18 10:03:22;;;;;;;30.42;20.00;;;18.20;99.90;;;;;;5011298;28;20050;-72
2022/10/18 10:06:02;;;;;;;29.63;21.55;;;18.30;99.90;;;;;;5080545;28;20439;-73
2022/10/18 10:08:34;;;;;;;28.98;22.73;;;18.40;99.90;;;;;;5013103;28;20158;-73
2022/10/18 10:11:02;;;;;;;28.63;20.65;;;18.40;99.90;;;;;;5011949;28;20042;-74
2022/10/18 10:13:30;;;;;;;27.17;19.77;;;18.50;99.90;;;;;;5010968;28;20038;-73
2022/10/18 10:16:00;;;;;;;35.42;21.80;;;18.60;99.90;;;;;;5010896;28;20042;-73
2022/10/18 10:18:30;;;;;;;27.20;19.88;;;18.70;99.90;;;;;;5010345;28;20034;-71
2022/10/18 10:21:00;;;;;;;33.03;21.38;;;18.70;99.90;;;;;;5023540;28;20052;-71
2022/10/18 10:23:32;;;;;;;35.40;23.13;;;18.70;99.90;;;;;;5015266;28;20077;-72
2022/10/18 10:26:04;;;;;;;30.33;21.70;;;18.80;99.90;;;;;;5010250;28;20115;-72
2022/10/18 10:28:35;;;;;;;32.22;22.33;;;18.90;99.90;;;;;;5008940;28;20060;-71
2022/10/18 10:31:18;;;;;;;29.27;20.17;;;19.00;99.90;;;;;;5008558;28;20107;-72
2022/10/18 10:33:47;;;;;;;29.65;21.52;;;19.10;99.90;;;;;;5007197;28;20042;-72
2022/10/18 10:36:18;;;;;;;43.80;23.85;;;19.10;99.90;;;;;;5010032;28;20049;-73
2022/10/18 10:38:45;;;;;;;29.88;20.95;;;19.10;99.90;;;;;;5076395;28;20038;-72
2022/10/18 10:41:23;;;;;;;33.00;21.25;;;19.10;99.90;;;;;;4999110;28;20049;-72
2022/10/18 10:43:51;;;;;;;25.75;18.70;;;19.20;99.90;;;;;;5012208;28;20485;-72
2022/10/18 10:46:19;;;;;;;29.73;18.77;;;19.30;99.90;;;;;;5014133;28;20488;-72
2022/10/18 10:48:49;;;;;;;31.98;18.70;;;19.30;99.90;;;;;;5013953;28;20041;-71
2022/10/18 10:51:28;;;;;;;28.48;19.13;;;19.30;99.90;;;;;;5022038;28;20064;-73
2022/10/18 10:54:00;;;;;;;30.20;18.70;;;19.40;99.90;;;;;;5010897;28;20049;-72
2022/10/18 10:56:31;;;;;;;24.35;19.35;;;19.50;99.90;;;;;;5012737;28;20046;-70
2022/10/18 10:59:08;;;;;;;25.60;18.92;;;19.50;99.90;;;;;;5040163;28;20034;-70
2022/10/18 11:01:36;;;;;;;24.85;17.67;;;19.50;99.90;;;;;;5013362;28;20048;-69
2022/10/18 11:04:24;;;;;;;25.08;18.05;;;19.50;99.90;;;;;;5066818;28;20050;-69
2022/10/18 11:07:00;;;;;;;52.30;24.02;;;19.60;99.90;;;;;;4993872;28;20060;-69
2022/10/18 11:09:50;;;;;;;23.58;17.00;;;19.60;99.90;;;;;;4994206;28;20080;-70
2022/10/18 11:12:33;;;;;;;28.55;18.55;;;19.60;99.90;;;;;;5008862;28;20046;-69
2022/10/18 11:15:17;;;;;;;29.42;18.73;;;19.60;99.90;;;;;;5013015;28;20049;-69
2022/10/18 11:17:48;;;;;;;70.55;26.10;;;19.60;99.90;;;;;;5013393;28;20105;-71
2022/10/18 11:20:24;;;;;;;48.25;18.63;;;19.70;99.90;;;;;;5012352;28;20050;-70
2022/10/18 11:22:57;;;;;;;;;;;19.80;99.90;;;;;;5013026;28;20076;-70
2022/10/18 11:25:29;;;;;;;24.83;16.48;;;19.80;99.90;;;;;;5012021;28;19921;-69
2022/10/18 11:28:04;;;;;;;25.33;16.10;;;19.80;99.90;;;;;;5016360;28;20038;-69
2022/10/18 11:30:43;;;;;;;27.30;17.93;;;19.90;99.90;;;;;;5005662;28;20057;-69
2022/10/18 11:33:23;;;;;;;28.23;17.75;;;19.90;99.90;;;;;;5027978;28;20041;-69
2022/10/18 11:35:55;;;;;;;25.48;16.73;;;19.90;99.90;;;;;;5012098;28;20050;-70
2022/10/18 11:38:31;;;;;;;19.13;13.95;;;19.90;99.90;;;;;;5012027;28;20119;-70
2022/10/18 11:41:06;;;;;;;;;;;20.00;99.90;;;;;;5012206;28;20041;-69
2022/10/18 11:43:41;;;;;;;25.63;15.23;;;19.90;99.40;;;;;;5078943;28;19921;-70
2022/10/18 11:46:17;;;;;;;17.10;13.20;;;19.90;98.60;;;;;;5010486;28;20042;-69
2022/10/18 11:48:59;;;;;;;22.02;13.20;;;20.00;97.90;;;;;;4993090;28;20411;-70
2022/10/18 11:51:35;;;;;;;17.92;13.10;;;20.00;96.60;;;;;;4992864;28;20501;-69
2022/10/18 11:54:24;;;;;;;27.85;15.75;;;20.00;95.80;;;;;;5063394;28;20046;-70
2022/10/18 11:57:00;;;;;;;18.92;12.35;;;20.10;95.60;;;;;;5007795;28;20072;-69
2022/10/18 11:59:37;;;;;;;14.93;11.93;;;20.20;94.20;;;;;;5013003;28;20053;-69
2022/10/18 12:02:37;;;;;;;27.33;13.80;;;20.30;92.90;;;;;;5013123;28;20046;-69
2022/10/18 12:05:06;;;;;;;22.75;15.07;;;20.40;91.20;;;;;;5015552;28;20428;-69
2022/10/18 12:07:38;;;;;;;17.30;12.02;;;20.40;90.50;;;;;;5013607;28;20488;-69
2022/10/18 12:10:08;;;;;;;22.50;15.68;;;20.40;89.20;;;;;;5091333;28;20030;-70
2022/10/18 12:12:41;;;;;;;15.73;13.25;;;20.40;89.00;;;;;;5076139;28;20058;-71
2022/10/18 12:15:19;;;;;;;17.15;12.70;;;20.50;90.40;;;;;;4994644;28;20507;-70
2022/10/18 12:17:52;;;;;;;21.80;12.95;;;20.60;90.40;;;;;;4991798;28;20045;-69
2022/10/18 12:20:25;;;;;;;14.68;11.43;;;20.60;90.40;;;;;;4991169;28;20042;-69
2022/10/18 12:23:01;;;;;;;18.08;11.85;;;20.70;90.40;;;;;;4991211;28;20045;-69
2022/10/18 12:25:29;;;;;;;;;;;20.70;90.30;;;;;;4999510;28;20053;-71
2022/10/18 12:28:00;;;;;;;21.20;12.52;;;20.70;90.00;;;;;;5014077;28;19921;-68
2022/10/18 12:30:34;;;;;;;17.48;12.10;;;20.70;90.00;;;;;;5012856;28;20050;-69
2022/10/18 12:33:07;;;;;;;27.17;21.40;;;20.70;90.20;;;;;;5081019;28;20050;-69
2022/10/18 12:35:55;;;;;;;29.25;21.73;;;20.70;90.20;;;;;;5015580;28;20042;-69
2022/10/18 12:38:26;;;;;;;16.38;13.18;;;20.70;90.40;;;;;;5014310;28;20038;-69
2022/10/18 12:40:55;;;;;;;21.50;13.15;;;20.70;89.30;;;;;;5014520;28;20041;-69
2022/10/18 12:43:25;;;;;;;26.02;17.38;;;20.80;89.00;;;;;;5083166;28;20530;-69
2022/10/18 12:45:57;;;;;;;24.15;17.63;;;20.80;89.20;;;;;;5013722;28;20046;-69
2022/10/18 12:48:37;;;;;;;17.67;13.10;;;20.80;89.10;;;;;;5081432;28;20049;-69
2022/10/18 12:51:13;;;;;;;25.02;16.95;;;20.80;87.80;;;;;;5080306;28;20066;-69
2022/10/18 12:53:43;;;;;;;19.38;14.45;;;20.90;87.40;;;;;;5012745;28;20075;-69
2022/10/18 12:56:36;;;;;;;21.48;14.02;;;20.90;87.30;;;;;;5012277;28;20034;-70
2022/10/18 12:59:48;;;;;;;15.07;11.80;;;21.00;86.00;;;;;;5017673;28;20054;-69
2022/10/18 13:02:26;;;;;;;19.08;12.85;;;21.00;84.70;;;;;;5051322;28;20046;-69
2022/10/18 13:04:55;;;;;;;21.48;14.05;;;21.00;84.90;;;;;;5011212;28;20046;-69
2022/10/18 13:07:39;;;;;;;17.63;12.15;;;21.00;84.70;;;;;;5011668;28;20089;-69
2022/10/18 13:10:40;;;;;;;19.20;13.70;;;21.00;83.80;;;;;;5074848;28;20040;-69
2022/10/18 13:13:29;;;;;;;19.67;13.55;;;21.00;85.00;;;;;;5073042;28;20040;-71
2022/10/18 13:16:03;;;;;;;18.23;13.10;;;21.10;84.80;;;;;;5064524;28;20063;-70
2022/10/18 13:18:45;;;;;;;21.50;13.82;;;21.10;84.70;;;;;;5072019;28;20037;-69
2022/10/18 13:21:20;;;;;;;21.33;12.80;;;21.10;84.40;;;;;;5074276;28;20048;-70
2022/10/18 13:24:01;;;;;;;16.70;12.85;;;21.10;84.10;;;;;;5073169;28;20056;-70
2022/10/18 13:26:36;;;;;;;16.98;11.88;;;21.20;82.70;;;;;;5076406;28;20048;-69
2022/10/18 13:29:22;;;;;;;19.40;12.55;;;21.20;82.80;;;;;;5077814;28;20043;-70
2022/10/18 13:31:57;;;;;;;31.80;17.70;;;21.20;82.50;;;;;;5078493;28;20040;-69
2022/10/18 13:34:31;;;;;;;17.88;12.90;;;21.20;82.10;;;;;;5078297;28;20051;-69
2022/10/18 13:37:01;;;;;;;18.08;12.35;;;21.20;81.60;;;;;;5077495;28;20070;-70
2022/10/18 13:39:30;;;;;;;18.65;12.10;;;21.20;81.00;;;;;;5077339;28;20040;-70
2022/10/18 13:42:34;;;;;;;31.70;18.88;;;21.30;80.80;;;;;;5077036;28;20549;-68
2022/10/18 13:45:38;;;;;;;20.30;14.57;;;21.20;81.10;;;;;;5074346;28;20040;-69